createdAt,value
2022-12-23T17:41:04.706Z,11.80
2022-12-23T17:42:04.749Z,11.78
2022-12-23T17:43:04.463Z,11.78
2022-12-23T17:44:04.457Z,11.77
2022-12-23T17:45:04.535Z,11.72
2022-12-23T17:46:04.620Z,11.70
2022-12-23T17:47:04.427Z,11.70
2022-12-23T17:48:04.482Z,11.69
2022-12-23T17:49:04.452Z,11.69
2022-12-23T17:50:04.445Z,11.69
2022-12-23T17:51:04.408Z,11.68
2022-12-23T17:52:04.926Z,11.69
2022-12-23T17:53:04.509Z,11.66
2022-12-23T17:54:07.461Z,11.68
2022-12-23T17:55:04.396Z,11.66
2022-12-23T17:56:04.327Z,11.68
2022-12-23T17:57:04.335Z,11.68
2022-12-23T17:58:04.355Z,11.69
2022-12-23T17:59:04.301Z,11.70
2022-12-23T18:00:04.324Z,11.73
2022-12-23T18:01:04.475Z,11.80
2022-12-23T18:02:04.303Z,11.88
2022-12-23T18:03:04.321Z,11.94
2022-12-23T18:04:04.291Z,11.95
2022-12-23T18:05:04.291Z,11.95
2022-12-23T18:06:04.263Z,12.00
2022-12-23T18:07:04.270Z,12.04
2022-12-23T18:08:05.083Z,12.04
2022-12-23T18:09:08.257Z,12.04
2022-12-23T18:10:04.227Z,12.04
2022-12-23T18:11:04.599Z,12.03
2022-12-23T18:12:04.322Z,12.10
2022-12-23T18:13:04.223Z,12.12
2022-12-23T18:14:04.143Z,12.17
2022-12-23T18:15:04.148Z,12.18
2022-12-23T18:16:05.083Z,12.21
2022-12-23T18:17:04.234Z,12.24
2022-12-23T18:18:04.118Z,12.25
2022-12-23T18:19:04.131Z,12.22
2022-12-23T18:20:04.222Z,12.20
2022-12-23T18:21:04.076Z,12.21
2022-12-23T18:22:04.074Z,12.21
2022-12-23T18:23:04.234Z,12.17
2022-12-23T18:24:07.287Z,12.15
2022-12-23T18:25:04.123Z,12.12
2022-12-23T18:26:04.087Z,12.10
2022-12-23T18:27:04.083Z,12.09
2022-12-23T18:28:04.034Z,12.12
2022-12-23T18:29:03.976Z,12.12
2022-12-23T18:30:04.006Z,12.15
2022-12-23T18:31:04.055Z,12.28
2022-12-23T18:32:04.004Z,12.39
2022-12-23T18:33:03.965Z,12.43
2022-12-23T18:34:03.920Z,12.43
2022-12-23T18:35:03.989Z,12.43
2022-12-23T18:36:03.953Z,12.40
2022-12-23T18:37:03.939Z,12.40
2022-12-23T18:38:03.881Z,12.40
2022-12-23T18:39:06.937Z,12.40
2022-12-23T18:40:03.893Z,12.45
2022-12-23T18:41:03.882Z,12.46
2022-12-23T18:42:03.889Z,12.49
2022-12-23T18:43:03.875Z,12.53
2022-12-23T18:44:03.877Z,12.57
2022-12-23T18:45:03.896Z,12.61
2022-12-23T18:46:03.844Z,12.57
2022-12-23T18:47:03.865Z,12.53
2022-12-23T18:48:03.853Z,12.53
2022-12-23T18:49:03.776Z,12.53
2022-12-23T18:50:03.793Z,12.55
2022-12-23T18:51:03.825Z,12.54
2022-12-23T18:52:03.819Z,12.53
2022-12-23T18:53:03.766Z,12.53
2022-12-23T18:54:06.781Z,12.58
2022-12-23T18:55:03.763Z,12.55
2022-12-23T18:56:03.769Z,12.50
2022-12-23T18:57:03.702Z,12.53
2022-12-23T18:58:03.666Z,12.64
2022-12-23T18:59:03.726Z,12.70
2022-12-23T19:00:04.066Z,12.68
2022-12-23T19:01:03.707Z,12.65
2022-12-23T19:02:03.738Z,12.61
2022-12-23T19:03:03.734Z,12.60
2022-12-23T19:04:03.762Z,12.57
2022-12-23T19:05:03.742Z,12.57
2022-12-23T19:06:04.574Z,12.61
2022-12-23T19:07:03.605Z,12.62
2022-12-23T19:08:03.597Z,12.70
2022-12-23T19:09:07.534Z,12.68
2022-12-23T19:10:03.677Z,12.78
2022-12-23T19:11:03.601Z,12.85
2022-12-23T19:12:03.597Z,12.90
2022-12-23T19:13:03.510Z,12.91
2022-12-23T19:14:03.551Z,12.90
2022-12-23T19:15:03.723Z,12.85
2022-12-23T19:16:03.605Z,12.86
2022-12-23T19:17:03.560Z,12.87
2022-12-23T19:18:03.472Z,12.91
2022-12-23T19:19:03.473Z,12.86
2022-12-23T19:20:03.458Z,12.78
2022-12-23T19:21:03.504Z,12.75
2022-12-23T19:22:03.496Z,12.87
2022-12-23T19:23:03.425Z,12.98
2022-12-23T19:24:06.457Z,12.97
2022-12-23T19:25:06.550Z,12.95
2022-12-23T19:26:04.348Z,12.94
2022-12-23T19:27:03.427Z,12.91
2022-12-23T19:28:03.386Z,13.01
2022-12-23T19:29:03.370Z,13.03
2022-12-23T19:30:03.406Z,13.05
2022-12-23T19:31:03.359Z,13.08
2022-12-23T19:32:03.434Z,13.05
2022-12-23T19:33:03.348Z,13.08
2022-12-23T19:34:03.357Z,13.08
2022-12-23T19:35:04.344Z,13.05
2022-12-23T19:36:03.344Z,13.08
2022-12-23T19:37:03.327Z,13.08
2022-12-23T19:38:03.273Z,13.05
2022-12-23T19:39:06.262Z,13.11
2022-12-23T19:40:03.334Z,13.11
2022-12-23T19:41:03.522Z,13.05
2022-12-23T19:42:03.211Z,13.03
2022-12-23T19:43:03.320Z,12.98
2022-12-23T19:44:03.221Z,12.98
2022-12-23T19:45:03.487Z,12.97
2022-12-23T19:46:03.292Z,12.90
2022-12-23T19:47:03.188Z,12.83
2022-12-23T19:48:03.173Z,12.78
2022-12-23T19:49:03.257Z,12.72
2022-12-23T19:50:03.164Z,12.68
2022-12-23T19:51:03.334Z,12.67
2022-12-23T19:52:04.110Z,12.64
2022-12-23T19:53:04.088Z,12.60
2022-12-23T19:54:06.144Z,12.58
2022-12-23T19:55:03.103Z,12.60
2022-12-23T19:56:03.099Z,12.61
2022-12-23T19:57:03.156Z,12.61
2022-12-23T19:58:03.079Z,12.58
2022-12-23T19:59:03.084Z,12.55
2022-12-23T20:00:03.062Z,12.54
2022-12-23T20:01:03.026Z,12.47
2022-12-23T20:02:03.126Z,12.46
2022-12-23T20:03:03.054Z,12.49
2022-12-23T20:04:03.017Z,12.47
2022-12-23T20:05:03.131Z,12.49
2022-12-23T20:06:03.006Z,12.53
2022-12-23T20:07:03.018Z,12.58
2022-12-23T20:08:02.962Z,12.60
2022-12-23T20:09:05.950Z,12.57
2022-12-23T20:10:02.968Z,12.55
2022-12-23T20:11:02.937Z,12.53
2022-12-23T20:12:02.987Z,12.50
2022-12-23T20:13:02.921Z,12.46
2022-12-23T20:14:02.908Z,12.43
2022-12-23T20:15:02.963Z,12.40
2022-12-23T20:16:03.017Z,12.47
2022-12-23T20:17:03.242Z,12.57
2022-12-23T20:18:02.871Z,12.60
2022-12-23T20:19:02.881Z,12.67
2022-12-23T20:20:02.840Z,12.70
2022-12-23T20:21:02.949Z,12.73
2022-12-23T20:22:02.851Z,12.73
2022-12-23T20:23:02.818Z,12.70
2022-12-23T20:24:05.863Z,12.65
2022-12-23T20:25:02.808Z,12.65
2022-12-23T20:26:02.780Z,12.62
2022-12-23T20:27:06.328Z,12.58
2022-12-23T20:28:02.800Z,12.61
2022-12-23T20:29:02.752Z,12.76
2022-12-23T20:30:02.739Z,12.87
2022-12-23T20:31:02.766Z,12.97
2022-12-23T20:32:02.708Z,12.98
2022-12-23T20:33:02.870Z,12.94
2022-12-23T20:34:02.673Z,12.94
2022-12-23T20:35:02.687Z,12.91
2022-12-23T20:36:02.707Z,12.94
2022-12-23T20:37:02.653Z,12.93
2022-12-23T20:38:02.631Z,12.90
2022-12-23T20:39:05.633Z,12.82
2022-12-23T20:40:02.637Z,12.78
2022-12-23T20:41:02.629Z,12.75
2022-12-23T20:42:02.676Z,12.75
2022-12-23T20:43:02.610Z,12.76
2022-12-23T20:45:03.569Z,12.76
2022-12-23T20:46:02.658Z,12.76
2022-12-23T20:47:02.827Z,12.72
2022-12-23T20:48:02.528Z,12.73
2022-12-23T20:49:02.574Z,12.78
2022-12-23T20:50:02.522Z,12.78
2022-12-23T20:51:02.539Z,12.73
2022-12-23T20:52:02.496Z,12.76
2022-12-23T20:53:02.475Z,12.73
2022-12-23T20:54:05.526Z,12.73
2022-12-23T20:55:02.510Z,12.75
2022-12-23T20:56:02.507Z,12.72
2022-12-23T20:57:02.488Z,12.67
2022-12-23T20:58:02.443Z,12.64
2022-12-23T20:59:02.430Z,12.70
2022-12-23T21:00:02.575Z,12.67
2022-12-23T21:01:02.406Z,12.67
2022-12-23T21:02:02.528Z,12.75
2022-12-23T21:03:08.411Z,12.70
2022-12-23T21:04:02.409Z,12.70
2022-12-23T21:05:02.423Z,12.67
2022-12-23T21:06:02.381Z,12.62
2022-12-23T21:07:02.365Z,12.58
2022-12-23T21:08:02.358Z,12.54
2022-12-23T21:09:05.330Z,12.54
2022-12-23T21:10:02.323Z,12.50
2022-12-23T21:11:02.329Z,12.47
2022-12-23T21:12:02.310Z,12.45
2022-12-23T21:13:02.302Z,12.37
2022-12-23T21:14:06.807Z,12.31
2022-12-23T21:15:02.290Z,12.28
2022-12-23T21:16:02.482Z,12.24
2022-12-23T21:17:02.296Z,12.22
2022-12-23T21:18:02.332Z,12.18
2022-12-23T21:19:02.247Z,12.18
2022-12-23T21:20:07.565Z,12.22
2022-12-23T21:21:02.195Z,12.22
2022-12-23T21:22:02.218Z,12.31
2022-12-23T21:23:02.187Z,12.37
2022-12-23T21:24:05.260Z,12.37
2022-12-23T21:25:02.217Z,12.39
2022-12-23T21:26:02.169Z,12.46
2022-12-23T21:27:02.412Z,12.50
2022-12-23T21:28:02.151Z,12.50
2022-12-23T21:29:02.110Z,12.45
2022-12-23T21:30:02.203Z,12.47
2022-12-23T21:31:02.150Z,12.50
2022-12-23T21:32:02.177Z,12.54
2022-12-23T21:33:02.088Z,12.57
2022-12-23T21:34:02.114Z,12.60
2022-12-23T21:35:02.048Z,12.58
2022-12-23T21:36:02.090Z,12.60
2022-12-23T21:37:02.202Z,12.61
2022-12-23T21:38:02.042Z,12.62
2022-12-23T21:39:05.018Z,12.64
2022-12-23T21:40:02.003Z,12.62
2022-12-23T21:41:02.218Z,12.58
2022-12-23T21:42:02.036Z,12.61
2022-12-23T21:43:08.322Z,12.62
2022-12-23T21:44:01.975Z,12.64
2022-12-23T21:45:01.981Z,12.62
2022-12-23T21:46:01.995Z,12.60
2022-12-23T21:47:01.980Z,12.57
2022-12-23T21:48:01.922Z,12.60
2022-12-23T21:49:01.972Z,12.61
2022-12-23T21:50:01.914Z,12.58
2022-12-23T21:51:01.911Z,12.61
2022-12-23T21:52:01.891Z,12.61
2022-12-23T21:53:01.856Z,12.58
2022-12-23T21:54:05.914Z,12.58
2022-12-23T21:55:01.897Z,12.60
2022-12-23T21:56:01.886Z,12.58
2022-12-23T21:57:01.837Z,12.55
2022-12-23T21:58:02.811Z,12.54
2022-12-23T21:59:01.816Z,12.53
2022-12-23T22:00:02.824Z,12.54
2022-12-23T22:01:01.836Z,12.54
2022-12-23T22:02:01.821Z,12.53
2022-12-23T22:03:01.772Z,12.53
2022-12-23T22:04:01.737Z,12.53
2022-12-23T22:05:01.944Z,12.53
2022-12-23T22:06:03.353Z,12.53
2022-12-23T22:07:01.825Z,12.62
2022-12-23T22:08:01.716Z,12.65
2022-12-23T22:09:04.707Z,12.68
2022-12-23T22:10:01.750Z,12.68
2022-12-23T22:11:01.664Z,12.70
2022-12-23T22:12:01.828Z,12.70
2022-12-23T22:13:01.752Z,12.65
2022-12-23T22:14:01.777Z,12.67
2022-12-23T22:15:05.051Z,12.67
2022-12-23T22:16:01.657Z,12.68
2022-12-23T22:17:01.715Z,12.68
2022-12-23T22:18:01.656Z,12.75
2022-12-23T22:19:01.628Z,12.72
2022-12-23T22:20:01.584Z,12.72
2022-12-23T22:21:01.630Z,12.68
2022-12-23T22:22:01.694Z,12.67
2022-12-23T22:23:01.542Z,12.67
2022-12-23T22:24:04.781Z,12.62
2022-12-23T22:25:01.683Z,12.64
2022-12-23T22:26:01.593Z,12.61
2022-12-23T22:27:01.571Z,12.60
2022-12-23T22:28:01.610Z,12.58
2022-12-23T22:29:01.538Z,12.57
2022-12-23T22:30:01.472Z,12.60
